sensor_id;sensor_type;location;lat;lon;timestamp;P1;durP1;ratioP1;P2;durP2;ratioP2
31004;SDS011;17676;52.254;4.490;2023-05-14T00:01:32;22.02;;;19.65;;
31004;SDS011;17676;52.254;4.490;2023-05-14T00:03:58;22.13;;;18.80;;
31004;SDS011;17676;52.254;4.490;2023-05-14T00:06:24;23.13;;;19.33;;
31004;SDS011;17676;52.254;4.490;2023-05-14T00:08:49;28.52;;;19.38;;
31004;SDS011;17676;52.254;4.490;2023-05-14T00:11:15;22.50;;;19.15;;
31004;SDS011;17676;52.254;4.490;2023-05-14T00:13:41;26.83;;;19.58;;
31004;SDS011;17676;52.254;4.490;2023-05-14T00:16:07;32.92;;;23.55;;
31004;SDS011;17676;52.254;4.490;2023-05-14T00:18:33;30.55;;;23.83;;
31004;SDS011;17676;52.254;4.490;2023-05-14T00:20:58;40.53;;;25.60;;
31004;SDS011;17676;52.254;4.490;2023-05-14T00:23:24;49.63;;;26.95;;
31004;SDS011;17676;52.254;4.490;2023-05-14T00:25:50;39.95;;;26.20;;
31004;SDS011;17676;52.254;4.490;2023-05-14T00:28:16;38.85;;;26.00;;
31004;SDS011;17676;52.254;4.490;2023-05-14T00:30:41;38.65;;;23.88;;
31004;SDS011;17676;52.254;4.490;2023-05-14T00:33:08;41.95;;;23.65;;
31004;SDS011;17676;52.254;4.490;2023-05-14T00:35:34;36.53;;;24.27;;
31004;SDS011;17676;52.254;4.490;2023-05-14T00:38:00;39.53;;;24.92;;
31004;SDS011;17676;52.254;4.490;2023-05-14T00:40:26;40.45;;;24.38;;
31004;SDS011;17676;52.254;4.490;2023-05-14T00:42:53;32.95;;;23.92;;
31004;SDS011;17676;52.254;4.490;2023-05-14T00:45:19;34.70;;;22.92;;
31004;SDS011;17676;52.254;4.490;2023-05-14T00:47:44;35.45;;;21.77;;
31004;SDS011;17676;52.254;4.490;2023-05-14T00:50:10;32.17;;;21.65;;
31004;SDS011;17676;52.254;4.490;2023-05-14T00:52:37;37.85;;;22.05;;
31004;SDS011;17676;52.254;4.490;2023-05-14T00:55:03;30.65;;;21.42;;
31004;SDS011;17676;52.254;4.490;2023-05-14T00:57:31;35.53;;;22.25;;
31004;SDS011;17676;52.254;4.490;2023-05-14T00:59:57;36.53;;;21.70;;
31004;SDS011;17676;52.254;4.490;2023-05-14T01:02:23;36.28;;;21.63;;
31004;SDS011;17676;52.254;4.490;2023-05-14T01:04:49;34.22;;;21.02;;
31004;SDS011;17676;52.254;4.490;2023-05-14T01:07:19;36.22;;;21.45;;
31004;SDS011;17676;52.254;4.490;2023-05-14T01:12:51;34.60;;;21.23;;
31004;SDS011;17676;52.254;4.490;2023-05-14T01:15:20;31.13;;;20.83;;
31004;SDS011;17676;52.254;4.490;2023-05-14T01:18:28;30.42;;;20.95;;
31004;SDS011;17676;52.254;4.490;2023-05-14T01:20:48;34.45;;;20.95;;
31004;SDS011;17676;52.254;4.490;2023-05-14T01:23:16;31.83;;;22.10;;
31004;SDS011;17676;52.254;4.490;2023-05-14T01:25:41;33.50;;;21.48;;
31004;SDS011;17676;52.254;4.490;2023-05-14T01:28:17;34.90;;;21.70;;
31004;SDS011;17676;52.254;4.490;2023-05-14T01:33:30;34.08;;;22.85;;
31004;SDS011;17676;52.254;4.490;2023-05-14T01:35:58;34.83;;;22.05;;
31004;SDS011;17676;52.254;4.490;2023-05-14T01:38:24;30.85;;;22.95;;
31004;SDS011;17676;52.254;4.490;2023-05-14T01:40:54;35.53;;;22.02;;
31004;SDS011;17676;52.254;4.490;2023-05-14T01:43:21;33.92;;;22.25;;
31004;SDS011;17676;52.254;4.490;2023-05-14T01:45:47;36.72;;;22.70;;
31004;SDS011;17676;52.254;4.490;2023-05-14T01:48:13;32.33;;;20.77;;
31004;SDS011;17676;52.254;4.490;2023-05-14T01:50:39;33.20;;;21.55;;
31004;SDS011;17676;52.254;4.490;2023-05-14T01:53:05;33.80;;;21.73;;
31004;SDS011;17676;52.254;4.490;2023-05-14T01:55:32;33.92;;;22.25;;
31004;SDS011;17676;52.254;4.490;2023-05-14T01:57:58;38.67;;;22.13;;
31004;SDS011;17676;52.254;4.490;2023-05-14T02:00:26;32.63;;;21.95;;
31004;SDS011;17676;52.254;4.490;2023-05-14T02:02:51;32.03;;;21.60;;
31004;SDS011;17676;52.254;4.490;2023-05-14T02:05:17;45.67;;;21.02;;
31004;SDS011;17676;52.254;4.490;2023-05-14T02:07:43;33.25;;;20.08;;
31004;SDS011;17676;52.254;4.490;2023-05-14T02:10:08;31.25;;;18.58;;
31004;SDS011;17676;52.254;4.490;2023-05-14T02:12:37;31.20;;;20.13;;
31004;SDS011;17676;52.254;4.490;2023-05-14T02:15:03;29.98;;;19.35;;
31004;SDS011;17676;52.254;4.490;2023-05-14T02:17:29;33.83;;;18.40;;
31004;SDS011;17676;52.254;4.490;2023-05-14T02:19:55;26.23;;;18.23;;
31004;SDS011;17676;52.254;4.490;2023-05-14T02:22:21;23.48;;;17.77;;
31004;SDS011;17676;52.254;4.490;2023-05-14T02:24:47;37.13;;;18.20;;
31004;SDS011;17676;52.254;4.490;2023-05-14T02:27:13;31.27;;;19.02;;
31004;SDS011;17676;52.254;4.490;2023-05-14T02:29:39;32.00;;;19.70;;
31004;SDS011;17676;52.254;4.490;2023-05-14T02:32:05;29.85;;;19.27;;
31004;SDS011;17676;52.254;4.490;2023-05-14T02:34:31;28.35;;;20.15;;
31004;SDS011;17676;52.254;4.490;2023-05-14T02:36:58;43.80;;;22.08;;
31004;SDS011;17676;52.254;4.490;2023-05-14T02:39:24;34.83;;;20.75;;
31004;SDS011;17676;52.254;4.490;2023-05-14T02:41:49;32.05;;;19.73;;
31004;SDS011;17676;52.254;4.490;2023-05-14T02:44:15;34.45;;;22.23;;
31004;SDS011;17676;52.254;4.490;2023-05-14T02:46:41;31.48;;;21.42;;
31004;SDS011;17676;52.254;4.490;2023-05-14T02:49:07;32.75;;;21.33;;
31004;SDS011;17676;52.254;4.490;2023-05-14T02:51:33;33.03;;;22.10;;
31004;SDS011;17676;52.254;4.490;2023-05-14T02:53:59;35.10;;;23.00;;
31004;SDS011;17676;52.254;4.490;2023-05-14T02:56:24;39.47;;;22.85;;
31004;SDS011;17676;52.254;4.490;2023-05-14T02:58:50;38.88;;;24.02;;
31004;SDS011;17676;52.254;4.490;2023-05-14T03:01:16;36.63;;;23.67;;
31004;SDS011;17676;52.254;4.490;2023-05-14T03:03:42;48.47;;;24.42;;
31004;SDS011;17676;52.254;4.490;2023-05-14T03:06:08;38.90;;;24.98;;
31004;SDS011;17676;52.254;4.490;2023-05-14T03:08:34;38.85;;;26.15;;
31004;SDS011;17676;52.254;4.490;2023-05-14T03:10:59;38.22;;;26.08;;
31004;SDS011;17676;52.254;4.490;2023-05-14T03:13:25;36.50;;;26.70;;
31004;SDS011;17676;52.254;4.490;2023-05-14T03:15:50;36.45;;;26.23;;
31004;SDS011;17676;52.254;4.490;2023-05-14T03:18:19;45.40;;;27.10;;
31004;SDS011;17676;52.254;4.490;2023-05-14T03:20:45;39.40;;;27.95;;
31004;SDS011;17676;52.254;4.490;2023-05-14T03:23:10;43.00;;;27.10;;
31004;SDS011;17676;52.254;4.490;2023-05-14T03:25:36;42.67;;;28.73;;
31004;SDS011;17676;52.254;4.490;2023-05-14T03:28:02;40.03;;;27.23;;
31004;SDS011;17676;52.254;4.490;2023-05-14T03:30:28;45.17;;;30.20;;
31004;SDS011;17676;52.254;4.490;2023-05-14T03:32:54;39.47;;;28.25;;
31004;SDS011;17676;52.254;4.490;2023-05-14T03:35:19;42.92;;;29.10;;
31004;SDS011;17676;52.254;4.490;2023-05-14T03:37:45;40.13;;;28.65;;
31004;SDS011;17676;52.254;4.490;2023-05-14T03:40:11;45.88;;;27.85;;
31004;SDS011;17676;52.254;4.490;2023-05-14T03:42:37;47.47;;;30.48;;
31004;SDS011;17676;52.254;4.490;2023-05-14T03:45:02;46.88;;;28.27;;
31004;SDS011;17676;52.254;4.490;2023-05-14T03:47:28;47.90;;;29.58;;
31004;SDS011;17676;52.254;4.490;2023-05-14T03:49:59;44.70;;;30.23;;
31004;SDS011;17676;52.254;4.490;2023-05-14T03:52:25;42.85;;;29.58;;
31004;SDS011;17676;52.254;4.490;2023-05-14T03:54:50;52.95;;;30.70;;
31004;SDS011;17676;52.254;4.490;2023-05-14T03:57:16;46.15;;;31.23;;
31004;SDS011;17676;52.254;4.490;2023-05-14T03:59:41;48.60;;;32.50;;
31004;SDS011;17676;52.254;4.490;2023-05-14T04:02:07;53.25;;;33.30;;
31004;SDS011;17676;52.254;4.490;2023-05-14T04:04:33;47.72;;;31.95;;
31004;SDS011;17676;52.254;4.490;2023-05-14T04:06:58;47.50;;;31.77;;
31004;SDS011;17676;52.254;4.490;2023-05-14T04:09:24;47.42;;;31.98;;
31004;SDS011;17676;52.254;4.490;2023-05-14T04:11:50;46.10;;;30.45;;
31004;SDS011;17676;52.254;4.490;2023-05-14T04:14:15;42.33;;;30.02;;
31004;SDS011;17676;52.254;4.490;2023-05-14T04:16:41;40.92;;;29.67;;
31004;SDS011;17676;52.254;4.490;2023-05-14T04:19:07;41.72;;;29.75;;
31004;SDS011;17676;52.254;4.490;2023-05-14T04:21:33;43.35;;;29.92;;
31004;SDS011;17676;52.254;4.490;2023-05-14T04:23:58;40.00;;;29.35;;
31004;SDS011;17676;52.254;4.490;2023-05-14T04:26:24;41.97;;;29.98;;
31004;SDS011;17676;52.254;4.490;2023-05-14T04:28:50;43.90;;;31.02;;
31004;SDS011;17676;52.254;4.490;2023-05-14T04:31:16;47.05;;;34.58;;
31004;SDS011;17676;52.254;4.490;2023-05-14T04:33:42;50.38;;;34.05;;
31004;SDS011;17676;52.254;4.490;2023-05-14T04:36:08;56.95;;;38.10;;
31004;SDS011;17676;52.254;4.490;2023-05-14T04:38:34;58.60;;;40.20;;
31004;SDS011;17676;52.254;4.490;2023-05-14T04:40:59;70.97;;;42.00;;
31004;SDS011;17676;52.254;4.490;2023-05-14T04:43:25;66.57;;;42.53;;
31004;SDS011;17676;52.254;4.490;2023-05-14T04:45:50;71.38;;;42.40;;
31004;SDS011;17676;52.254;4.490;2023-05-14T04:48:16;72.35;;;43.08;;
31004;SDS011;17676;52.254;4.490;2023-05-14T04:50:42;66.20;;;41.50;;
31004;SDS011;17676;52.254;4.490;2023-05-14T04:53:08;61.97;;;39.88;;
31004;SDS011;17676;52.254;4.490;2023-05-14T04:55:34;63.72;;;40.63;;
31004;SDS011;17676;52.254;4.490;2023-05-14T04:58:00;58.08;;;39.17;;
31004;SDS011;17676;52.254;4.490;2023-05-14T05:00:26;57.55;;;38.63;;
31004;SDS011;17676;52.254;4.490;2023-05-14T05:02:52;57.40;;;38.90;;
31004;SDS011;17676;52.254;4.490;2023-05-14T05:05:18;57.53;;;39.15;;
31004;SDS011;17676;52.254;4.490;2023-05-14T05:07:44;52.85;;;37.40;;
31004;SDS011;17676;52.254;4.490;2023-05-14T05:10:10;56.08;;;37.85;;
31004;SDS011;17676;52.254;4.490;2023-05-14T05:12:35;53.88;;;36.55;;
31004;SDS011;17676;52.254;4.490;2023-05-14T05:15:01;46.88;;;35.05;;
31004;SDS011;17676;52.254;4.490;2023-05-14T05:17:27;49.33;;;33.85;;
31004;SDS011;17676;52.254;4.490;2023-05-14T05:19:53;39.95;;;31.70;;
31004;SDS011;17676;52.254;4.490;2023-05-14T05:22:19;37.42;;;30.50;;
31004;SDS011;17676;52.254;4.490;2023-05-14T05:24:44;31.85;;;24.40;;
31004;SDS011;17676;52.254;4.490;2023-05-14T05:27:10;31.10;;;25.40;;
31004;SDS011;17676;52.254;4.490;2023-05-14T05:29:36;28.35;;;25.23;;
31004;SDS011;17676;52.254;4.490;2023-05-14T05:32:02;28.73;;;22.67;;
31004;SDS011;17676;52.254;4.490;2023-05-14T05:34:27;28.55;;;23.50;;
31004;SDS011;17676;52.254;4.490;2023-05-14T05:36:53;28.77;;;22.13;;
31004;SDS011;17676;52.254;4.490;2023-05-14T05:39:19;25.08;;;22.38;;
31004;SDS011;17676;52.254;4.490;2023-05-14T05:41:45;30.55;;;21.25;;
31004;SDS011;17676;52.254;4.490;2023-05-14T05:44:10;25.25;;;21.98;;
31004;SDS011;17676;52.254;4.490;2023-05-14T05:46:36;29.38;;;20.33;;
31004;SDS011;17676;52.254;4.490;2023-05-14T05:49:02;28.48;;;21.95;;
31004;SDS011;17676;52.254;4.490;2023-05-14T05:51:28;27.13;;;21.75;;
31004;SDS011;17676;52.254;4.490;2023-05-14T05:53:54;32.20;;;22.00;;
31004;SDS011;17676;52.254;4.490;2023-05-14T05:56:19;30.17;;;21.52;;
31004;SDS011;17676;52.254;4.490;2023-05-14T05:58:46;25.42;;;21.15;;
31004;SDS011;17676;52.254;4.490;2023-05-14T06:01:11;27.83;;;21.15;;
31004;SDS011;17676;52.254;4.490;2023-05-14T06:03:37;21.85;;;19.10;;
31004;SDS011;17676;52.254;4.490;2023-05-14T06:06:03;20.98;;;18.58;;
31004;SDS011;17676;52.254;4.490;2023-05-14T06:08:28;24.42;;;18.80;;
31004;SDS011;17676;52.254;4.490;2023-05-14T06:10:54;22.92;;;18.15;;
31004;SDS011;17676;52.254;4.490;2023-05-14T06:13:20;21.58;;;17.45;;
31004;SDS011;17676;52.254;4.490;2023-05-14T06:15:45;20.90;;;17.15;;
31004;SDS011;17676;52.254;4.490;2023-05-14T06:18:11;20.77;;;15.38;;
31004;SDS011;17676;52.254;4.490;2023-05-14T06:20:37;20.65;;;14.52;;
31004;SDS011;17676;52.254;4.490;2023-05-14T06:23:02;18.65;;;14.80;;
31004;SDS011;17676;52.254;4.490;2023-05-14T06:25:28;19.25;;;15.25;;
31004;SDS011;17676;52.254;4.490;2023-05-14T06:27:54;24.20;;;17.52;;
31004;SDS011;17676;52.254;4.490;2023-05-14T06:30:19;22.73;;;17.65;;
31004;SDS011;17676;52.254;4.490;2023-05-14T06:32:46;28.15;;;17.65;;
31004;SDS011;17676;52.254;4.490;2023-05-14T06:35:11;32.28;;;16.77;;
31004;SDS011;17676;52.254;4.490;2023-05-14T06:37:37;21.40;;;14.65;;
31004;SDS011;17676;52.254;4.490;2023-05-14T06:40:02;16.40;;;12.85;;
31004;SDS011;17676;52.254;4.490;2023-05-14T06:42:29;24.42;;;13.27;;
31004;SDS011;17676;52.254;4.490;2023-05-14T06:44:54;15.55;;;11.65;;
31004;SDS011;17676;52.254;4.490;2023-05-14T06:47:20;12.52;;;10.23;;
31004;SDS011;17676;52.254;4.490;2023-05-14T06:49:45;16.38;;;9.32;;
31004;SDS011;17676;52.254;4.490;2023-05-14T06:52:14;17.10;;;10.90;;
31004;SDS011;17676;52.254;4.490;2023-05-14T06:54:40;18.63;;;10.23;;
31004;SDS011;17676;52.254;4.490;2023-05-14T06:57:05;17.80;;;8.52;;
31004;SDS011;17676;52.254;4.490;2023-05-14T06:59:31;13.02;;;9.20;;
31004;SDS011;17676;52.254;4.490;2023-05-14T07:01:57;17.73;;;9.05;;
31004;SDS011;17676;52.254;4.490;2023-05-14T07:04:23;11.90;;;7.95;;
31004;SDS011;17676;52.254;4.490;2023-05-14T07:06:49;16.48;;;7.90;;
31004;SDS011;17676;52.254;4.490;2023-05-14T07:09:15;11.35;;;7.82;;
31004;SDS011;17676;52.254;4.490;2023-05-14T07:11:40;18.02;;;8.38;;
31004;SDS011;17676;52.254;4.490;2023-05-14T07:14:06;13.73;;;7.97;;
31004;SDS011;17676;52.254;4.490;2023-05-14T07:16:32;14.50;;;7.55;;
31004;SDS011;17676;52.254;4.490;2023-05-14T07:18:58;10.40;;;5.60;;
31004;SDS011;17676;52.254;4.490;2023-05-14T07:21:23;13.43;;;5.07;;
31004;SDS011;17676;52.254;4.490;2023-05-14T07:23:50;13.07;;;5.50;;
31004;SDS011;17676;52.254;4.490;2023-05-14T07:26:16;11.25;;;5.03;;
31004;SDS011;17676;52.254;4.490;2023-05-14T07:28:41;11.75;;;5.63;;
31004;SDS011;17676;52.254;4.490;2023-05-14T07:31:07;16.73;;;4.72;;
31004;SDS011;17676;52.254;4.490;2023-05-14T07:33:35;11.35;;;3.92;;
31004;SDS011;17676;52.254;4.490;2023-05-14T07:36:01;11.30;;;3.78;;
31004;SDS011;17676;52.254;4.490;2023-05-14T07:38:27;9.77;;;3.70;;
31004;SDS011;17676;52.254;4.490;2023-05-14T07:40:52;9.55;;;3.40;;
31004;SDS011;17676;52.254;4.490;2023-05-14T07:43:18;8.27;;;3.30;;
31004;SDS011;17676;52.254;4.490;2023-05-14T07:45:44;14.98;;;3.80;;
31004;SDS011;17676;52.254;4.490;2023-05-14T07:48:10;9.13;;;3.05;;
31004;SDS011;17676;52.254;4.490;2023-05-14T07:50:36;11.23;;;2.67;;
31004;SDS011;17676;52.254;4.490;2023-05-14T07:53:02;8.57;;;2.42;;
31004;SDS011;17676;52.254;4.490;2023-05-14T07:55:27;13.10;;;2.88;;
31004;SDS011;17676;52.254;4.490;2023-05-14T07:57:53;12.27;;;3.15;;
31004;SDS011;17676;52.254;4.490;2023-05-14T08:00:19;11.75;;;2.42;;
31004;SDS011;17676;52.254;4.490;2023-05-14T08:02:45;10.30;;;1.67;;
31004;SDS011;17676;52.254;4.490;2023-05-14T08:05:10;9.30;;;2.03;;
31004;SDS011;17676;52.254;4.490;2023-05-14T08:07:36;11.68;;;2.28;;
31004;SDS011;17676;52.254;4.490;2023-05-14T08:10:02;9.20;;;2.33;;
31004;SDS011;17676;52.254;4.490;2023-05-14T08:12:28;9.73;;;2.10;;
31004;SDS011;17676;52.254;4.490;2023-05-14T08:14:54;6.03;;;1.38;;
31004;SDS011;17676;52.254;4.490;2023-05-14T08:17:20;7.28;;;1.83;;
31004;SDS011;17676;52.254;4.490;2023-05-14T08:19:46;9.45;;;1.95;;
31004;SDS011;17676;52.254;4.490;2023-05-14T08:22:11;10.73;;;1.88;;
31004;SDS011;17676;52.254;4.490;2023-05-14T08:24:37;6.57;;;1.75;;
31004;SDS011;17676;52.254;4.490;2023-05-14T08:27:03;10.88;;;2.45;;
31004;SDS011;17676;52.254;4.490;2023-05-14T08:29:29;8.63;;;2.10;;
31004;SDS011;17676;52.254;4.490;2023-05-14T08:31:54;5.82;;;1.77;;
31004;SDS011;17676;52.254;4.490;2023-05-14T08:34:20;10.15;;;1.90;;
31004;SDS011;17676;52.254;4.490;2023-05-14T08:36:46;8.00;;;1.92;;
31004;SDS011;17676;52.254;4.490;2023-05-14T08:39:12;12.13;;;2.30;;
31004;SDS011;17676;52.254;4.490;2023-05-14T08:41:38;8.70;;;1.52;;
31004;SDS011;17676;52.254;4.490;2023-05-14T08:44:11;6.65;;;1.70;;
31004;SDS011;17676;52.254;4.490;2023-05-14T08:46:38;8.77;;;2.20;;
31004;SDS011;17676;52.254;4.490;2023-05-14T08:49:14;10.73;;;1.80;;
31004;SDS011;17676;52.254;4.490;2023-05-14T08:51:45;6.43;;;1.30;;
31004;SDS011;17676;52.254;4.490;2023-05-14T08:54:14;7.53;;;1.98;;
31004;SDS011;17676;52.254;4.490;2023-05-14T08:56:42;9.55;;;2.10;;
31004;SDS011;17676;52.254;4.490;2023-05-14T08:59:10;7.93;;;1.55;;
31004;SDS011;17676;52.254;4.490;2023-05-14T09:01:36;7.20;;;1.40;;
31004;SDS011;17676;52.254;4.490;2023-05-14T09:04:04;11.02;;;1.70;;
31004;SDS011;17676;52.254;4.490;2023-05-14T09:06:33;6.07;;;1.40;;
31004;SDS011;17676;52.254;4.490;2023-05-14T09:09:01;10.52;;;1.50;;
31004;SDS011;17676;52.254;4.490;2023-05-14T09:11:27;7.38;;;0.98;;
31004;SDS011;17676;52.254;4.490;2023-05-14T09:13:53;7.13;;;1.35;;
31004;SDS011;17676;52.254;4.490;2023-05-14T09:16:18;9.93;;;1.35;;
31004;SDS011;17676;52.254;4.490;2023-05-14T09:18:45;12.50;;;1.92;;
31004;SDS011;17676;52.254;4.490;2023-05-14T09:21:12;6.03;;;1.10;;
31004;SDS011;17676;52.254;4.490;2023-05-14T09:23:42;8.65;;;1.80;;
31004;SDS011;17676;52.254;4.490;2023-05-14T09:26:08;6.70;;;1.23;;
31004;SDS011;17676;52.254;4.490;2023-05-14T09:28:34;14.88;;;2.20;;
31004;SDS011;17676;52.254;4.490;2023-05-14T09:31:03;6.78;;;1.35;;
31004;SDS011;17676;52.254;4.490;2023-05-14T09:33:29;10.82;;;1.95;;
31004;SDS011;17676;52.254;4.490;2023-05-14T09:35:58;9.48;;;1.73;;
31004;SDS011;17676;52.254;4.490;2023-05-14T09:38:27;5.57;;;1.38;;
31004;SDS011;17676;52.254;4.490;2023-05-14T09:40:56;9.15;;;1.65;;
31004;SDS011;17676;52.254;4.490;2023-05-14T09:43:22;6.85;;;1.77;;
31004;SDS011;17676;52.254;4.490;2023-05-14T09:45:48;6.82;;;1.58;;
31004;SDS011;17676;52.254;4.490;2023-05-14T09:48:13;9.52;;;1.88;;
31004;SDS011;17676;52.254;4.490;2023-05-14T09:50:42;8.02;;;1.48;;
31004;SDS011;17676;52.254;4.490;2023-05-14T09:53:09;5.55;;;1.38;;
31004;SDS011;17676;52.254;4.490;2023-05-14T09:55:37;7.43;;;1.33;;
31004;SDS011;17676;52.254;4.490;2023-05-14T09:58:03;9.50;;;1.50;;
31004;SDS011;17676;52.254;4.490;2023-05-14T10:00:33;8.15;;;1.27;;
31004;SDS011;17676;52.254;4.490;2023-05-14T10:03:01;7.90;;;1.27;;
31004;SDS011;17676;52.254;4.490;2023-05-14T10:05:29;10.40;;;1.70;;
31004;SDS011;17676;52.254;4.490;2023-05-14T10:10:49;5.45;;;1.27;;
31004;SDS011;17676;52.254;4.490;2023-05-14T10:13:17;7.35;;;1.52;;
31004;SDS011;17676;52.254;4.490;2023-05-14T10:15:56;8.48;;;1.40;;
31004;SDS011;17676;52.254;4.490;2023-05-14T10:18:35;7.20;;;1.33;;
31004;SDS011;17676;52.254;4.490;2023-05-14T10:21:10;6.18;;;1.50;;
31004;SDS011;17676;52.254;4.490;2023-05-14T10:23:38;8.63;;;1.38;;
31004;SDS011;17676;52.254;4.490;2023-05-14T10:26:05;7.18;;;1.45;;
31004;SDS011;17676;52.254;4.490;2023-05-14T10:28:33;9.23;;;1.40;;
31004;SDS011;17676;52.254;4.490;2023-05-14T10:30:59;10.15;;;1.63;;
31004;SDS011;17676;52.254;4.490;2023-05-14T10:33:24;8.25;;;1.80;;
31004;SDS011;17676;52.254;4.490;2023-05-14T10:35:54;9.45;;;1.45;;
31004;SDS011;17676;52.254;4.490;2023-05-14T10:38:25;9.68;;;2.08;;
31004;SDS011;17676;52.254;4.490;2023-05-14T10:40:59;9.73;;;1.80;;
31004;SDS011;17676;52.254;4.490;2023-05-14T10:43:28;8.43;;;1.90;;
31004;SDS011;17676;52.254;4.490;2023-05-14T10:45:58;12.73;;;2.33;;
31004;SDS011;17676;52.254;4.490;2023-05-14T10:48:24;9.23;;;2.05;;
31004;SDS011;17676;52.254;4.490;2023-05-14T10:50:50;8.48;;;1.90;;
31004;SDS011;17676;52.254;4.490;2023-05-14T10:53:18;9.02;;;1.30;;
31004;SDS011;17676;52.254;4.490;2023-05-14T10:55:54;7.00;;;1.35;;
31004;SDS011;17676;52.254;4.490;2023-05-14T10:58:19;7.90;;;1.77;;
31004;SDS011;17676;52.254;4.490;2023-05-14T11:00:46;7.40;;;1.50;;
31004;SDS011;17676;52.254;4.490;2023-05-14T11:03:14;6.60;;;1.58;;
31004;SDS011;17676;52.254;4.490;2023-05-14T11:05:40;10.23;;;1.73;;
31004;SDS011;17676;52.254;4.490;2023-05-14T11:08:07;6.43;;;1.50;;
31004;SDS011;17676;52.254;4.490;2023-05-14T11:10:32;8.43;;;1.35;;
31004;SDS011;17676;52.254;4.490;2023-05-14T11:12:59;7.47;;;1.58;;
31004;SDS011;17676;52.254;4.490;2023-05-14T11:15:25;10.27;;;1.60;;
31004;SDS011;17676;52.254;4.490;2023-05-14T11:17:52;10.48;;;1.50;;
31004;SDS011;17676;52.254;4.490;2023-05-14T11:20:18;10.70;;;1.50;;
31004;SDS011;17676;52.254;4.490;2023-05-14T11:22:45;8.88;;;1.83;;
31004;SDS011;17676;52.254;4.490;2023-05-14T11:25:14;6.28;;;1.60;;
31004;SDS011;17676;52.254;4.490;2023-05-14T11:27:43;6.68;;;1.30;;
31004;SDS011;17676;52.254;4.490;2023-05-14T11:30:13;9.90;;;1.60;;
31004;SDS011;17676;52.254;4.490;2023-05-14T11:32:45;8.23;;;1.70;;
31004;SDS011;17676;52.254;4.490;2023-05-14T11:35:12;8.38;;;1.20;;
31004;SDS011;17676;52.254;4.490;2023-05-14T11:37:39;9.80;;;1.40;;
31004;SDS011;17676;52.254;4.490;2023-05-14T11:40:06;9.20;;;2.08;;
31004;SDS011;17676;52.254;4.490;2023-05-14T11:42:33;9.82;;;1.65;;
31004;SDS011;17676;52.254;4.490;2023-05-14T11:45:00;8.10;;;1.63;;
31004;SDS011;17676;52.254;4.490;2023-05-14T11:47:27;6.78;;;1.90;;
31004;SDS011;17676;52.254;4.490;2023-05-14T11:49:53;9.75;;;2.00;;
31004;SDS011;17676;52.254;4.490;2023-05-14T11:52:19;6.30;;;1.42;;
31004;SDS011;17676;52.254;4.490;2023-05-14T11:54:45;9.85;;;2.00;;
31004;SDS011;17676;52.254;4.490;2023-05-14T11:57:19;7.63;;;1.63;;
31004;SDS011;17676;52.254;4.490;2023-05-14T11:59:54;6.18;;;1.70;;
31004;SDS011;17676;52.254;4.490;2023-05-14T12:02:25;8.60;;;1.45;;
31004;SDS011;17676;52.254;4.490;2023-05-14T12:04:53;7.57;;;1.63;;
31004;SDS011;17676;52.254;4.490;2023-05-14T12:07:18;8.75;;;2.47;;
31004;SDS011;17676;52.254;4.490;2023-05-14T12:09:45;10.05;;;2.20;;
31004;SDS011;17676;52.254;4.490;2023-05-14T12:12:19;7.18;;;1.80;;
31004;SDS011;17676;52.254;4.490;2023-05-14T12:14:46;7.82;;;1.65;;
31004;SDS011;17676;52.254;4.490;2023-05-14T12:19:42;12.82;;;1.85;;
31004;SDS011;17676;52.254;4.490;2023-05-14T12:22:09;10.05;;;1.50;;
31004;SDS011;17676;52.254;4.490;2023-05-14T12:24:35;9.88;;;1.73;;
31004;SDS011;17676;52.254;4.490;2023-05-14T12:27:03;12.68;;;1.98;;
31004;SDS011;17676;52.254;4.490;2023-05-14T12:29:38;5.05;;;1.40;;
31004;SDS011;17676;52.254;4.490;2023-05-14T12:32:06;7.97;;;1.50;;
31004;SDS011;17676;52.254;4.490;2023-05-14T12:34:33;6.57;;;1.85;;
31004;SDS011;17676;52.254;4.490;2023-05-14T12:36:59;7.30;;;1.75;;
31004;SDS011;17676;52.254;4.490;2023-05-14T12:39:25;7.05;;;1.95;;
31004;SDS011;17676;52.254;4.490;2023-05-14T12:41:50;11.05;;;2.15;;
31004;SDS011;17676;52.254;4.490;2023-05-14T12:44:18;10.65;;;1.90;;
31004;SDS011;17676;52.254;4.490;2023-05-14T12:46:46;9.32;;;2.33;;
31004;SDS011;17676;52.254;4.490;2023-05-14T12:49:12;7.68;;;2.00;;
31004;SDS011;17676;52.254;4.490;2023-05-14T12:51:37;6.75;;;2.03;;
31004;SDS011;17676;52.254;4.490;2023-05-14T12:54:03;8.02;;;2.30;;
31004;SDS011;17676;52.254;4.490;2023-05-14T12:56:28;9.30;;;2.33;;
31004;SDS011;17676;52.254;4.490;2023-05-14T12:58:56;9.65;;;2.30;;
31004;SDS011;17676;52.254;4.490;2023-05-14T13:01:22;11.40;;;1.92;;
31004;SDS011;17676;52.254;4.490;2023-05-14T13:03:54;10.82;;;2.40;;
31004;SDS011;17676;52.254;4.490;2023-05-14T13:06:20;9.60;;;2.30;;
31004;SDS011;17676;52.254;4.490;2023-05-14T13:08:46;6.93;;;2.17;;
31004;SDS011;17676;52.254;4.490;2023-05-14T13:11:11;8.02;;;2.53;;
31004;SDS011;17676;52.254;4.490;2023-05-14T13:13:37;12.13;;;2.58;;
31004;SDS011;17676;52.254;4.490;2023-05-14T13:16:03;6.68;;;2.33;;
31004;SDS011;17676;52.254;4.490;2023-05-14T13:18:29;7.68;;;2.42;;
31004;SDS011;17676;52.254;4.490;2023-05-14T13:20:54;10.30;;;2.55;;
31004;SDS011;17676;52.254;4.490;2023-05-14T13:23:20;10.35;;;2.50;;
31004;SDS011;17676;52.254;4.490;2023-05-14T13:25:46;9.23;;;2.75;;
31004;SDS011;17676;52.254;4.490;2023-05-14T13:28:11;7.68;;;2.17;;
31004;SDS011;17676;52.254;4.490;2023-05-14T13:30:37;7.95;;;2.22;;
31004;SDS011;17676;52.254;4.490;2023-05-14T13:33:02;7.43;;;1.90;;
31004;SDS011;17676;52.254;4.490;2023-05-14T13:35:28;5.78;;;2.05;;
31004;SDS011;17676;52.254;4.490;2023-05-14T13:37:54;11.18;;;2.60;;
31004;SDS011;17676;52.254;4.490;2023-05-14T13:40:19;8.35;;;2.13;;
31004;SDS011;17676;52.254;4.490;2023-05-14T13:42:45;9.70;;;3.05;;
31004;SDS011;17676;52.254;4.490;2023-05-14T13:45:10;10.98;;;3.78;;
31004;SDS011;17676;52.254;4.490;2023-05-14T13:47:37;7.00;;;3.25;;
31004;SDS011;17676;52.254;4.490;2023-05-14T13:50:02;8.45;;;3.70;;
31004;SDS011;17676;52.254;4.490;2023-05-14T13:52:28;10.68;;;4.25;;
31004;SDS011;17676;52.254;4.490;2023-05-14T13:54:54;9.93;;;3.63;;
31004;SDS011;17676;52.254;4.490;2023-05-14T13:57:20;10.65;;;4.32;;
31004;SDS011;17676;52.254;4.490;2023-05-14T13:59:46;8.98;;;5.70;;
31004;SDS011;17676;52.254;4.490;2023-05-14T14:02:13;9.00;;;5.80;;
31004;SDS011;17676;52.254;4.490;2023-05-14T14:04:39;10.30;;;5.65;;
31004;SDS011;17676;52.254;4.490;2023-05-14T14:07:05;9.18;;;4.70;;
31004;SDS011;17676;52.254;4.490;2023-05-14T14:09:30;12.98;;;6.40;;
31004;SDS011;17676;52.254;4.490;2023-05-14T14:12:04;9.70;;;5.30;;
31004;SDS011;17676;52.254;4.490;2023-05-14T14:14:30;5.90;;;5.22;;
31004;SDS011;17676;52.254;4.490;2023-05-14T14:16:58;11.05;;;6.20;;
31004;SDS011;17676;52.254;4.490;2023-05-14T14:19:23;8.98;;;5.07;;
31004;SDS011;17676;52.254;4.490;2023-05-14T14:21:49;7.95;;;5.30;;
31004;SDS011;17676;52.254;4.490;2023-05-14T14:24:14;7.95;;;5.50;;
31004;SDS011;17676;52.254;4.490;2023-05-14T14:26:40;9.43;;;5.32;;
31004;SDS011;17676;52.254;4.490;2023-05-14T14:29:06;11.55;;;5.57;;
31004;SDS011;17676;52.254;4.490;2023-05-14T14:31:31;10.60;;;5.93;;
31004;SDS011;17676;52.254;4.490;2023-05-14T14:33:57;8.02;;;5.90;;
31004;SDS011;17676;52.254;4.490;2023-05-14T14:36:22;10.00;;;6.45;;
31004;SDS011;17676;52.254;4.490;2023-05-14T14:38:48;8.77;;;5.78;;
31004;SDS011;17676;52.254;4.490;2023-05-14T14:41:13;9.48;;;5.65;;